sensor_id;sensor_type;location;lat;lon;timestamp;P1;durP1;ratioP1;P2;durP2;ratioP2
11935;SDS011;6027;48.576;9.180;2022-12-29T00:01:24;8.10;;;6.28;;
11935;SDS011;6027;48.576;9.180;2022-12-29T00:03:49;8.20;;;4.90;;
11935;SDS011;6027;48.576;9.180;2022-12-29T00:06:15;3.88;;;3.10;;
11935;SDS011;6027;48.576;9.180;2022-12-29T00:08:40;2.00;;;1.80;;
11935;SDS011;6027;48.576;9.180;2022-12-29T00:11:10;2.42;;;1.95;;
11935;SDS011;6027;48.576;9.180;2022-12-29T00:13:37;2.57;;;1.63;;
11935;SDS011;6027;48.576;9.180;2022-12-29T00:16:26;3.90;;;1.70;;
11935;SDS011;6027;48.576;9.180;2022-12-29T00:18:53;3.70;;;1.70;;
11935;SDS011;6027;48.576;9.180;2022-12-29T00:21:19;2.72;;;1.65;;
11935;SDS011;6027;48.576;9.180;2022-12-29T00:24:05;3.92;;;1.58;;
11935;SDS011;6027;48.576;9.180;2022-12-29T00:26:40;3.00;;;2.00;;
11935;SDS011;6027;48.576;9.180;2022-12-29T00:29:24;2.40;;;1.70;;
11935;SDS011;6027;48.576;9.180;2022-12-29T00:32:09;2.95;;;1.90;;
11935;SDS011;6027;48.576;9.180;2022-12-29T00:34:53;3.67;;;2.05;;
11935;SDS011;6027;48.576;9.180;2022-12-29T00:37:35;2.72;;;2.28;;
11935;SDS011;6027;48.576;9.180;2022-12-29T00:40:21;5.38;;;3.17;;
11935;SDS011;6027;48.576;9.180;2022-12-29T00:43:05;4.82;;;3.72;;
11935;SDS011;6027;48.576;9.180;2022-12-29T00:45:49;4.03;;;3.38;;
11935;SDS011;6027;48.576;9.180;2022-12-29T00:48:14;3.67;;;3.25;;
11935;SDS011;6027;48.576;9.180;2022-12-29T00:50:40;5.30;;;3.42;;
11935;SDS011;6027;48.576;9.180;2022-12-29T00:53:05;4.25;;;3.13;;
11935;SDS011;6027;48.576;9.180;2022-12-29T00:55:30;3.50;;;2.85;;
11935;SDS011;6027;48.576;9.180;2022-12-29T00:57:56;5.60;;;2.90;;
11935;SDS011;6027;48.576;9.180;2022-12-29T01:00:21;4.38;;;3.47;;
11935;SDS011;6027;48.576;9.180;2022-12-29T01:02:47;5.32;;;2.85;;
11935;SDS011;6027;48.576;9.180;2022-12-29T01:05:12;3.30;;;2.75;;
11935;SDS011;6027;48.576;9.180;2022-12-29T01:07:38;3.90;;;2.30;;
11935;SDS011;6027;48.576;9.180;2022-12-29T01:10:03;3.27;;;2.40;;
11935;SDS011;6027;48.576;9.180;2022-12-29T01:12:35;2.67;;;2.30;;
11935;SDS011;6027;48.576;9.180;2022-12-29T01:15:07;2.63;;;2.33;;
11935;SDS011;6027;48.576;9.180;2022-12-29T01:17:34;2.88;;;2.22;;
11935;SDS011;6027;48.576;9.180;2022-12-29T01:20:00;4.30;;;2.10;;
11935;SDS011;6027;48.576;9.180;2022-12-29T01:22:26;2.77;;;2.10;;
11935;SDS011;6027;48.576;9.180;2022-12-29T01:24:52;2.53;;;2.20;;
11935;SDS011;6027;48.576;9.180;2022-12-29T01:27:17;4.22;;;1.92;;
11935;SDS011;6027;48.576;9.180;2022-12-29T01:29:42;4.43;;;1.90;;
11935;SDS011;6027;48.576;9.180;2022-12-29T01:32:08;3.67;;;1.98;;
11935;SDS011;6027;48.576;9.180;2022-12-29T01:34:33;2.58;;;1.80;;
11935;SDS011;6027;48.576;9.180;2022-12-29T01:36:58;3.67;;;2.03;;
11935;SDS011;6027;48.576;9.180;2022-12-29T01:39:24;2.63;;;1.80;;
11935;SDS011;6027;48.576;9.180;2022-12-29T01:41:49;3.40;;;1.60;;
11935;SDS011;6027;48.576;9.180;2022-12-29T01:47:08;2.63;;;1.57;;
11935;SDS011;6027;48.576;9.180;2022-12-29T01:49:33;2.47;;;1.50;;
11935;SDS011;6027;48.576;9.180;2022-12-29T01:52:01;3.53;;;1.73;;
11935;SDS011;6027;48.576;9.180;2022-12-29T01:54:35;2.70;;;1.50;;
11935;SDS011;6027;48.576;9.180;2022-12-29T01:57:08;2.67;;;1.58;;
11935;SDS011;6027;48.576;9.180;2022-12-29T01:59:38;2.55;;;1.63;;
11935;SDS011;6027;48.576;9.180;2022-12-29T02:02:09;3.95;;;1.30;;
11935;SDS011;6027;48.576;9.180;2022-12-29T02:04:34;2.17;;;1.27;;
11935;SDS011;6027;48.576;9.180;2022-12-29T02:07:07;3.15;;;1.20;;
11935;SDS011;6027;48.576;9.180;2022-12-29T02:09:36;5.07;;;1.42;;
11935;SDS011;6027;48.576;9.180;2022-12-29T02:12:02;2.35;;;1.40;;
11935;SDS011;6027;48.576;9.180;2022-12-29T02:14:28;2.65;;;1.20;;
11935;SDS011;6027;48.576;9.180;2022-12-29T02:38:15;1.90;;;1.00;;
11935;SDS011;6027;48.576;9.180;2022-12-29T02:40:46;2.45;;;1.13;;
11935;SDS011;6027;48.576;9.180;2022-12-29T02:45:53;1.73;;;0.90;;
11935;SDS011;6027;48.576;9.180;2022-12-29T02:50:59;1.27;;;1.17;;
11935;SDS011;6027;48.576;9.180;2022-12-29T02:53:32;1.65;;;1.08;;
11935;SDS011;6027;48.576;9.180;2022-12-29T02:56:18;1.33;;;0.88;;
11935;SDS011;6027;48.576;9.180;2022-12-29T02:58:44;2.55;;;1.00;;
11935;SDS011;6027;48.576;9.180;2022-12-29T03:09:21;2.42;;;1.00;;
11935;SDS011;6027;48.576;9.180;2022-12-29T03:12:17;1.55;;;0.90;;
11935;SDS011;6027;48.576;9.180;2022-12-29T03:14:47;1.95;;;1.00;;
11935;SDS011;6027;48.576;9.180;2022-12-29T03:17:43;0.90;;;0.70;;
11935;SDS011;6027;48.576;9.180;2022-12-29T03:20:18;1.58;;;0.90;;
11935;SDS011;6027;48.576;9.180;2022-12-29T03:22:51;1.83;;;1.00;;
11935;SDS011;6027;48.576;9.180;2022-12-29T03:25:28;2.92;;;1.02;;
11935;SDS011;6027;48.576;9.180;2022-12-29T03:27:57;2.28;;;0.90;;
11935;SDS011;6027;48.576;9.180;2022-12-29T03:30:26;1.05;;;0.80;;
11935;SDS011;6027;48.576;9.180;2022-12-29T03:32:55;3.28;;;1.08;;
11935;SDS011;6027;48.576;9.180;2022-12-29T03:35:25;2.40;;;0.85;;
11935;SDS011;6027;48.576;9.180;2022-12-29T03:41:07;1.05;;;0.95;;
11935;SDS011;6027;48.576;9.180;2022-12-29T03:43:36;3.38;;;1.20;;
11935;SDS011;6027;48.576;9.180;2022-12-29T03:46:02;1.95;;;1.00;;
11935;SDS011;6027;48.576;9.180;2022-12-29T03:48:28;3.20;;;1.20;;
11935;SDS011;6027;48.576;9.180;2022-12-29T03:50:53;1.98;;;1.02;;
11935;SDS011;6027;48.576;9.180;2022-12-29T03:53:19;2.05;;;1.00;;
11935;SDS011;6027;48.576;9.180;2022-12-29T03:55:44;1.30;;;1.20;;
11935;SDS011;6027;48.576;9.180;2022-12-29T03:58:09;2.65;;;0.90;;
11935;SDS011;6027;48.576;9.180;2022-12-29T04:00:35;1.45;;;0.98;;
11935;SDS011;6027;48.576;9.180;2022-12-29T04:03:12;2.80;;;1.08;;
11935;SDS011;6027;48.576;9.180;2022-12-29T04:05:38;2.03;;;0.80;;
11935;SDS011;6027;48.576;9.180;2022-12-29T04:08:03;3.03;;;1.10;;
11935;SDS011;6027;48.576;9.180;2022-12-29T04:10:29;3.00;;;1.10;;
11935;SDS011;6027;48.576;9.180;2022-12-29T04:12:54;4.90;;;2.55;;
11935;SDS011;6027;48.576;9.180;2022-12-29T04:15:19;2.75;;;1.40;;
11935;SDS011;6027;48.576;9.180;2022-12-29T04:17:45;2.38;;;1.10;;
11935;SDS011;6027;48.576;9.180;2022-12-29T04:20:10;3.65;;;0.90;;
11935;SDS011;6027;48.576;9.180;2022-12-29T04:23:04;1.05;;;0.93;;
11935;SDS011;6027;48.576;9.180;2022-12-29T04:25:30;2.58;;;1.20;;
11935;SDS011;6027;48.576;9.180;2022-12-29T04:27:57;2.55;;;1.83;;
11935;SDS011;6027;48.576;9.180;2022-12-29T04:30:22;1.92;;;1.05;;
11935;SDS011;6027;48.576;9.180;2022-12-29T04:32:48;2.30;;;1.08;;
11935;SDS011;6027;48.576;9.180;2022-12-29T04:35:13;1.15;;;0.80;;
11935;SDS011;6027;48.576;9.180;2022-12-29T04:37:39;1.98;;;1.08;;
11935;SDS011;6027;48.576;9.180;2022-12-29T04:40:04;2.70;;;1.10;;
11935;SDS011;6027;48.576;9.180;2022-12-29T04:42:30;3.22;;;1.30;;
11935;SDS011;6027;48.576;9.180;2022-12-29T04:44:55;3.17;;;1.23;;
11935;SDS011;6027;48.576;9.180;2022-12-29T04:47:21;3.28;;;1.38;;
11935;SDS011;6027;48.576;9.180;2022-12-29T04:49:46;2.30;;;0.95;;
11935;SDS011;6027;48.576;9.180;2022-12-29T04:52:12;3.88;;;1.00;;
11935;SDS011;6027;48.576;9.180;2022-12-29T04:54:37;1.73;;;0.80;;
11935;SDS011;6027;48.576;9.180;2022-12-29T04:57:02;3.20;;;1.05;;
11935;SDS011;6027;48.576;9.180;2022-12-29T04:59:28;4.75;;;1.20;;
11935;SDS011;6027;48.576;9.180;2022-12-29T05:01:54;1.60;;;0.95;;
11935;SDS011;6027;48.576;9.180;2022-12-29T05:04:19;3.28;;;1.30;;
11935;SDS011;6027;48.576;9.180;2022-12-29T05:06:44;4.03;;;0.88;;
11935;SDS011;6027;48.576;9.180;2022-12-29T05:09:10;2.95;;;0.90;;
11935;SDS011;6027;48.576;9.180;2022-12-29T05:11:35;1.88;;;1.20;;
11935;SDS011;6027;48.576;9.180;2022-12-29T05:14:01;1.83;;;0.80;;
11935;SDS011;6027;48.576;9.180;2022-12-29T05:16:26;2.03;;;0.98;;
11935;SDS011;6027;48.576;9.180;2022-12-29T05:18:51;1.30;;;1.05;;
11935;SDS011;6027;48.576;9.180;2022-12-29T05:21:17;1.80;;;1.15;;
11935;SDS011;6027;48.576;9.180;2022-12-29T05:23:42;1.27;;;1.08;;
11935;SDS011;6027;48.576;9.180;2022-12-29T05:26:08;4.80;;;0.80;;
11935;SDS011;6027;48.576;9.180;2022-12-29T05:28:33;1.77;;;1.25;;
11935;SDS011;6027;48.576;9.180;2022-12-29T05:30:59;1.20;;;1.10;;
11935;SDS011;6027;48.576;9.180;2022-12-29T05:33:24;1.23;;;0.85;;
11935;SDS011;6027;48.576;9.180;2022-12-29T05:35:49;1.38;;;0.90;;
11935;SDS011;6027;48.576;9.180;2022-12-29T05:38:15;1.92;;;1.02;;
11935;SDS011;6027;48.576;9.180;2022-12-29T05:40:40;2.22;;;1.10;;
11935;SDS011;6027;48.576;9.180;2022-12-29T05:43:06;1.52;;;1.00;;
11935;SDS011;6027;48.576;9.180;2022-12-29T05:45:31;2.92;;;1.15;;
11935;SDS011;6027;48.576;9.180;2022-12-29T05:47:57;3.53;;;1.10;;
11935;SDS011;6027;48.576;9.180;2022-12-29T05:50:22;1.85;;;0.90;;
11935;SDS011;6027;48.576;9.180;2022-12-29T05:52:47;1.17;;;1.05;;
11935;SDS011;6027;48.576;9.180;2022-12-29T05:55:13;1.98;;;0.95;;
11935;SDS011;6027;48.576;9.180;2022-12-29T05:57:38;2.28;;;1.00;;
11935;SDS011;6027;48.576;9.180;2022-12-29T06:00:04;3.00;;;1.20;;
11935;SDS011;6027;48.576;9.180;2022-12-29T06:02:30;2.47;;;1.08;;
11935;SDS011;6027;48.576;9.180;2022-12-29T06:04:56;2.75;;;1.20;;
11935;SDS011;6027;48.576;9.180;2022-12-29T06:07:21;2.88;;;1.35;;
11935;SDS011;6027;48.576;9.180;2022-12-29T06:09:47;1.30;;;0.93;;
11935;SDS011;6027;48.576;9.180;2022-12-29T06:12:12;2.15;;;1.13;;
11935;SDS011;6027;48.576;9.180;2022-12-29T06:14:38;1.30;;;1.10;;
11935;SDS011;6027;48.576;9.180;2022-12-29T06:17:03;2.10;;;1.20;;
11935;SDS011;6027;48.576;9.180;2022-12-29T06:19:29;1.20;;;1.10;;
11935;SDS011;6027;48.576;9.180;2022-12-29T06:21:54;2.63;;;1.10;;
11935;SDS011;6027;48.576;9.180;2022-12-29T06:24:20;2.00;;;1.20;;
11935;SDS011;6027;48.576;9.180;2022-12-29T06:26:46;1.67;;;1.10;;
11935;SDS011;6027;48.576;9.180;2022-12-29T06:29:11;1.33;;;0.93;;
11935;SDS011;6027;48.576;9.180;2022-12-29T06:31:44;3.13;;;1.27;;
11935;SDS011;6027;48.576;9.180;2022-12-29T06:34:11;1.33;;;0.90;;
11935;SDS011;6027;48.576;9.180;2022-12-29T06:36:37;2.33;;;1.17;;
11935;SDS011;6027;48.576;9.180;2022-12-29T06:39:03;2.22;;;1.20;;
11935;SDS011;6027;48.576;9.180;2022-12-29T06:41:29;2.58;;;1.17;;
11935;SDS011;6027;48.576;9.180;2022-12-29T06:43:54;3.95;;;2.40;;
11935;SDS011;6027;48.576;9.180;2022-12-29T06:46:20;3.30;;;1.70;;
11935;SDS011;6027;48.576;9.180;2022-12-29T06:48:45;1.50;;;1.10;;
11935;SDS011;6027;48.576;9.180;2022-12-29T06:51:11;2.97;;;1.65;;
11935;SDS011;6027;48.576;9.180;2022-12-29T06:53:36;4.25;;;2.72;;
11935;SDS011;6027;48.576;9.180;2022-12-29T06:56:02;3.17;;;1.90;;
11935;SDS011;6027;48.576;9.180;2022-12-29T06:58:27;1.98;;;1.20;;
11935;SDS011;6027;48.576;9.180;2022-12-29T07:00:53;1.83;;;1.20;;
11935;SDS011;6027;48.576;9.180;2022-12-29T07:03:18;1.77;;;1.20;;
11935;SDS011;6027;48.576;9.180;2022-12-29T07:05:44;1.77;;;1.50;;
11935;SDS011;6027;48.576;9.180;2022-12-29T07:08:09;2.72;;;1.10;;
11935;SDS011;6027;48.576;9.180;2022-12-29T07:10:35;1.38;;;0.93;;
11935;SDS011;6027;48.576;9.180;2022-12-29T07:13:00;3.47;;;2.30;;
11935;SDS011;6027;48.576;9.180;2022-12-29T07:15:25;1.50;;;1.40;;
11935;SDS011;6027;48.576;9.180;2022-12-29T07:17:51;1.98;;;1.20;;
11935;SDS011;6027;48.576;9.180;2022-12-29T07:20:17;1.33;;;1.08;;
11935;SDS011;6027;48.576;9.180;2022-12-29T07:22:42;2.58;;;1.08;;
11935;SDS011;6027;48.576;9.180;2022-12-29T07:25:08;1.65;;;1.20;;
11935;SDS011;6027;48.576;9.180;2022-12-29T07:27:33;2.80;;;1.38;;
11935;SDS011;6027;48.576;9.180;2022-12-29T07:29:59;1.25;;;1.00;;
11935;SDS011;6027;48.576;9.180;2022-12-29T07:32:24;1.67;;;1.00;;
11935;SDS011;6027;48.576;9.180;2022-12-29T07:34:50;2.08;;;1.10;;
11935;SDS011;6027;48.576;9.180;2022-12-29T07:37:15;3.38;;;1.30;;
11935;SDS011;6027;48.576;9.180;2022-12-29T07:39:41;3.75;;;2.78;;
11935;SDS011;6027;48.576;9.180;2022-12-29T07:42:06;2.72;;;1.77;;
11935;SDS011;6027;48.576;9.180;2022-12-29T07:44:32;2.08;;;1.38;;
11935;SDS011;6027;48.576;9.180;2022-12-29T07:46:57;3.03;;;1.30;;
11935;SDS011;6027;48.576;9.180;2022-12-29T07:49:23;1.35;;;1.20;;
11935;SDS011;6027;48.576;9.180;2022-12-29T07:51:48;3.42;;;1.23;;
11935;SDS011;6027;48.576;9.180;2022-12-29T07:54:14;2.30;;;1.23;;
11935;SDS011;6027;48.576;9.180;2022-12-29T07:56:43;2.38;;;1.02;;
11935;SDS011;6027;48.576;9.180;2022-12-29T07:59:09;1.42;;;1.20;;
11935;SDS011;6027;48.576;9.180;2022-12-29T08:01:35;1.10;;;1.00;;
11935;SDS011;6027;48.576;9.180;2022-12-29T08:04:00;2.00;;;1.05;;
11935;SDS011;6027;48.576;9.180;2022-12-29T08:06:26;1.20;;;1.10;;
11935;SDS011;6027;48.576;9.180;2022-12-29T08:08:51;1.52;;;1.05;;
11935;SDS011;6027;48.576;9.180;2022-12-29T08:11:16;1.52;;;1.00;;
11935;SDS011;6027;48.576;9.180;2022-12-29T08:13:42;2.13;;;1.02;;
11935;SDS011;6027;48.576;9.180;2022-12-29T08:16:07;1.85;;;1.15;;
11935;SDS011;6027;48.576;9.180;2022-12-29T08:18:33;2.85;;;1.38;;
11935;SDS011;6027;48.576;9.180;2022-12-29T08:21:02;1.08;;;1.08;;
11935;SDS011;6027;48.576;9.180;2022-12-29T08:23:28;1.38;;;0.98;;
11935;SDS011;6027;48.576;9.180;2022-12-29T08:25:58;2.33;;;1.27;;
11935;SDS011;6027;48.576;9.180;2022-12-29T08:28:24;4.03;;;1.50;;
11935;SDS011;6027;48.576;9.180;2022-12-29T08:30:50;1.33;;;0.90;;
11935;SDS011;6027;48.576;9.180;2022-12-29T08:33:15;2.97;;;0.90;;
11935;SDS011;6027;48.576;9.180;2022-12-29T08:35:40;1.95;;;0.85;;
11935;SDS011;6027;48.576;9.180;2022-12-29T08:38:06;3.83;;;1.23;;
11935;SDS011;6027;48.576;9.180;2022-12-29T08:40:31;3.28;;;1.38;;
11935;SDS011;6027;48.576;9.180;2022-12-29T08:42:56;2.25;;;1.15;;
11935;SDS011;6027;48.576;9.180;2022-12-29T08:45:22;1.33;;;1.23;;
11935;SDS011;6027;48.576;9.180;2022-12-29T08:47:47;1.10;;;1.00;;
11935;SDS011;6027;48.576;9.180;2022-12-29T08:50:13;2.63;;;1.10;;
11935;SDS011;6027;48.576;9.180;2022-12-29T08:52:38;1.73;;;1.27;;
11935;SDS011;6027;48.576;9.180;2022-12-29T08:55:04;1.83;;;1.23;;
11935;SDS011;6027;48.576;9.180;2022-12-29T08:57:34;3.08;;;1.30;;
11935;SDS011;6027;48.576;9.180;2022-12-29T09:00:00;1.58;;;0.90;;
11935;SDS011;6027;48.576;9.180;2022-12-29T09:02:26;1.38;;;1.00;;
11935;SDS011;6027;48.576;9.180;2022-12-29T09:04:51;2.33;;;1.13;;
11935;SDS011;6027;48.576;9.180;2022-12-29T09:07:16;3.15;;;1.08;;
11935;SDS011;6027;48.576;9.180;2022-12-29T09:09:42;2.15;;;1.05;;
11935;SDS011;6027;48.576;9.180;2022-12-29T09:12:07;5.30;;;1.17;;
11935;SDS011;6027;48.576;9.180;2022-12-29T09:14:33;0.90;;;0.90;;
11935;SDS011;6027;48.576;9.180;2022-12-29T09:16:58;1.80;;;0.90;;
11935;SDS011;6027;48.576;9.180;2022-12-29T09:19:42;4.00;;;1.02;;
11935;SDS011;6027;48.576;9.180;2022-12-29T09:22:08;1.70;;;1.05;;
11935;SDS011;6027;48.576;9.180;2022-12-29T09:24:33;3.30;;;1.00;;
11935;SDS011;6027;48.576;9.180;2022-12-29T09:26:59;2.17;;;1.00;;
11935;SDS011;6027;48.576;9.180;2022-12-29T09:29:24;2.72;;;1.00;;
11935;SDS011;6027;48.576;9.180;2022-12-29T09:31:50;2.95;;;1.50;;
11935;SDS011;6027;48.576;9.180;2022-12-29T09:34:15;1.83;;;1.00;;
11935;SDS011;6027;48.576;9.180;2022-12-29T09:39:46;2.83;;;1.05;;
11935;SDS011;6027;48.576;9.180;2022-12-29T09:42:19;1.75;;;0.93;;
11935;SDS011;6027;48.576;9.180;2022-12-29T09:47:30;3.72;;;1.30;;
11935;SDS011;6027;48.576;9.180;2022-12-29T09:52:36;2.80;;;1.00;;
11935;SDS011;6027;48.576;9.180;2022-12-29T09:55:16;2.78;;;1.38;;
11935;SDS011;6027;48.576;9.180;2022-12-29T09:57:47;4.60;;;1.10;;
11935;SDS011;6027;48.576;9.180;2022-12-29T10:00:22;2.70;;;1.20;;
11935;SDS011;6027;48.576;9.180;2022-12-29T10:03:13;2.15;;;1.30;;
11935;SDS011;6027;48.576;9.180;2022-12-29T10:05:48;1.98;;;0.82;;
11935;SDS011;6027;48.576;9.180;2022-12-29T10:10:55;2.80;;;1.27;;
11935;SDS011;6027;48.576;9.180;2022-12-29T10:16:09;2.97;;;1.27;;
11935;SDS011;6027;48.576;9.180;2022-12-29T10:23:58;1.35;;;1.10;;
11935;SDS011;6027;48.576;9.180;2022-12-29T10:26:27;1.90;;;0.90;;
11935;SDS011;6027;48.576;9.180;2022-12-29T10:28:56;1.55;;;1.00;;
11935;SDS011;6027;48.576;9.180;2022-12-29T10:31:47;3.47;;;1.13;;
11935;SDS011;6027;48.576;9.180;2022-12-29T10:34:26;3.35;;;1.20;;
11935;SDS011;6027;48.576;9.180;2022-12-29T10:37:04;1.20;;;1.00;;
11935;SDS011;6027;48.576;9.180;2022-12-29T10:39:38;1.45;;;0.98;;
11935;SDS011;6027;48.576;9.180;2022-12-29T10:42:19;2.08;;;1.20;;
11935;SDS011;6027;48.576;9.180;2022-12-29T10:44:54;1.77;;;1.10;;
11935;SDS011;6027;48.576;9.180;2022-12-29T10:47:25;1.83;;;1.17;;
11935;SDS011;6027;48.576;9.180;2022-12-29T10:49:55;2.22;;;1.20;;
11935;SDS011;6027;48.576;9.180;2022-12-29T10:52:23;1.73;;;1.10;;
11935;SDS011;6027;48.576;9.180;2022-12-29T10:54:56;1.90;;;0.98;;
11935;SDS011;6027;48.576;9.180;2022-12-29T10:57:35;1.35;;;1.00;;
11935;SDS011;6027;48.576;9.180;2022-12-29T11:00:11;3.28;;;1.30;;
11935;SDS011;6027;48.576;9.180;2022-12-29T11:02:48;1.48;;;1.20;;
11935;SDS011;6027;48.576;9.180;2022-12-29T11:05:22;1.58;;;1.08;;
11935;SDS011;6027;48.576;9.180;2022-12-29T11:07:58;1.77;;;1.20;;
11935;SDS011;6027;48.576;9.180;2022-12-29T11:10:40;1.58;;;0.93;;
11935;SDS011;6027;48.576;9.180;2022-12-29T11:13:15;3.80;;;1.20;;
11935;SDS011;6027;48.576;9.180;2022-12-29T11:15:46;3.03;;;1.00;;
11935;SDS011;6027;48.576;9.180;2022-12-29T11:18:21;2.30;;;1.10;;
11935;SDS011;6027;48.576;9.180;2022-12-29T11:20:50;1.35;;;1.25;;
11935;SDS011;6027;48.576;9.180;2022-12-29T11:23:40;1.80;;;1.20;;
11935;SDS011;6027;48.576;9.180;2022-12-29T11:28:40;4.20;;;1.60;;
11935;SDS011;6027;48.576;9.180;2022-12-29T11:31:07;3.65;;;1.30;;
11935;SDS011;6027;48.576;9.180;2022-12-29T11:33:37;2.72;;;1.30;;
11935;SDS011;6027;48.576;9.180;2022-12-29T11:36:04;4.85;;;1.70;;
11935;SDS011;6027;48.576;9.180;2022-12-29T11:38:33;2.83;;;1.35;;
11935;SDS011;6027;48.576;9.180;2022-12-29T11:41:02;1.63;;;1.20;;
11935;SDS011;6027;48.576;9.180;2022-12-29T11:43:38;2.65;;;1.42;;
11935;SDS011;6027;48.576;9.180;2022-12-29T11:46:07;1.70;;;1.20;;
11935;SDS011;6027;48.576;9.180;2022-12-29T11:48:44;3.15;;;1.60;;
11935;SDS011;6027;48.576;9.180;2022-12-29T11:51:11;4.65;;;2.30;;
11935;SDS011;6027;48.576;9.180;2022-12-29T11:53:46;2.53;;;1.17;;
11935;SDS011;6027;48.576;9.180;2022-12-29T11:56:16;4.60;;;3.15;;
11935;SDS011;6027;48.576;9.180;2022-12-29T11:58:45;1.25;;;1.10;;
11935;SDS011;6027;48.576;9.180;2022-12-29T12:04:01;3.25;;;1.67;;
11935;SDS011;6027;48.576;9.180;2022-12-29T12:06:30;2.97;;;1.73;;
11935;SDS011;6027;48.576;9.180;2022-12-29T12:09:09;3.58;;;2.38;;
11935;SDS011;6027;48.576;9.180;2022-12-29T12:11:51;3.22;;;1.90;;
11935;SDS011;6027;48.576;9.180;2022-12-29T12:14:36;1.83;;;1.40;;
11935;SDS011;6027;48.576;9.180;2022-12-29T12:19:47;1.67;;;1.33;;
11935;SDS011;6027;48.576;9.180;2022-12-29T12:22:25;1.83;;;1.42;;
11935;SDS011;6027;48.576;9.180;2022-12-29T12:27:39;1.92;;;1.20;;
11935;SDS011;6027;48.576;9.180;2022-12-29T12:30:11;2.85;;;1.23;;
11935;SDS011;6027;48.576;9.180;2022-12-29T12:35:15;4.68;;;2.00;;
11935;SDS011;6027;48.576;9.180;2022-12-29T12:55:12;1.67;;;1.30;;
11935;SDS011;6027;48.576;9.180;2022-12-29T13:03:44;4.85;;;2.17;;
11935;SDS011;6027;48.576;9.180;2022-12-29T13:06:33;2.75;;;1.50;;
11935;SDS011;6027;48.576;9.180;2022-12-29T13:16:23;2.90;;;1.92;;
11935;SDS011;6027;48.576;9.180;2022-12-29T13:27:12;5.95;;;1.80;;
11935;SDS011;6027;48.576;9.180;2022-12-29T13:30:04;2.40;;;1.50;;
11935;SDS011;6027;48.576;9.180;2022-12-29T13:38:34;2.60;;;1.15;;
11935;SDS011;6027;48.576;9.180;2022-12-29T13:41:08;3.03;;;1.35;;
11935;SDS011;6027;48.576;9.180;2022-12-29T13:43:39;3.80;;;1.98;;
11935;SDS011;6027;48.576;9.180;2022-12-29T13:46:08;2.70;;;1.70;;
11935;SDS011;6027;48.576;9.180;2022-12-29T13:48:49;3.90;;;1.42;;
11935;SDS011;6027;48.576;9.180;2022-12-29T13:51:20;3.55;;;1.67;;
11935;SDS011;6027;48.576;9.180;2022-12-29T13:56:39;2.05;;;1.52;;
11935;SDS011;6027;48.576;9.180;2022-12-29T14:02:19;1.98;;;1.60;;
11935;SDS011;6027;48.576;9.180;2022-12-29T14:04:56;3.50;;;1.70;;
11935;SDS011;6027;48.576;9.180;2022-12-29T14:07:57;1.92;;;1.60;;
11935;SDS011;6027;48.576;9.180;2022-12-29T14:13:27;1.40;;;1.02;;
11935;SDS011;6027;48.576;9.180;2022-12-29T14:15:51;4.03;;;1.35;;
11935;SDS011;6027;48.576;9.180;2022-12-29T14:18:19;2.25;;;1.50;;
11935;SDS011;6027;48.576;9.180;2022-12-29T14:28:34;1.70;;;1.25;;
11935;SDS011;6027;48.576;9.180;2022-12-29T14:31:32;5.90;;;2.25;;
11935;SDS011;6027;48.576;9.180;2022-12-29T14:36:35;1.90;;;1.10;;
11935;SDS011;6027;48.576;9.180;2022-12-29T14:39:25;1.42;;;1.10;;
11935;SDS011;6027;48.576;9.180;2022-12-29T14:42:00;1.92;;;1.30;;
11935;SDS011;6027;48.576;9.180;2022-12-29T14:47:51;2.13;;;1.40;;
11935;SDS011;6027;48.576;9.180;2022-12-29T14:55:28;2.00;;;1.33;;
11935;SDS011;6027;48.576;9.180;2022-12-29T15:00:55;1.65;;;1.23;;
11935;SDS011;6027;48.576;9.180;2022-12-29T15:03:25;1.55;;;1.33;;
11935;SDS011;6027;48.576;9.180;2022-12-29T15:05:55;2.28;;;1.30;;
11935;SDS011;6027;48.576;9.180;2022-12-29T15:08:24;2.30;;;1.40;;
11935;SDS011;6027;48.576;9.180;2022-12-29T15:13:35;1.90;;;1.77;;
11935;SDS011;6027;48.576;9.180;2022-12-29T15:16:52;2.50;;;2.30;;
11935;SDS011;6027;48.576;9.180;2022-12-29T15:19:02;2.25;;;1.73;;
11935;SDS011;6027;48.576;9.180;2022-12-29T15:21:32;1.90;;;1.60;;
11935;SDS011;6027;48.576;9.180;2022-12-29T15:23:59;1.98;;;1.20;;
11935;SDS011;6027;48.576;9.180;2022-12-29T15:26:45;2.25;;;1.10;;
11935;SDS011;6027;48.576;9.180;2022-12-29T15:29:28;2.33;;;1.40;;
11935;SDS011;6027;48.576;9.180;2022-12-29T15:31:55;3.70;;;2.35;;
11935;SDS011;6027;48.576;9.180;2022-12-29T15:34:24;5.65;;;4.30;;
11935;SDS011;6027;48.576;9.180;2022-12-29T15:36:49;3.25;;;2.38;;
11935;SDS011;6027;48.576;9.180;2022-12-29T15:39:29;3.05;;;2.00;;
11935;SDS011;6027;48.576;9.180;2022-12-29T15:42:07;3.65;;;2.25;;
11935;SDS011;6027;48.576;9.180;2022-12-29T15:44:44;2.97;;;1.83;;
11935;SDS011;6027;48.576;9.180;2022-12-29T15:47:20;4.13;;;1.83;;
11935;SDS011;6027;48.576;9.180;2022-12-29T15:49:53;2.80;;;1.55;;
11935;SDS011;6027;48.576;9.180;2022-12-29T15:52:26;2.50;;;1.80;;
11935;SDS011;6027;48.576;9.180;2022-12-29T15:54:57;3.03;;;1.45;;
11935;SDS011;6027;48.576;9.180;2022-12-29T15:57:25;2.95;;;1.70;;
11935;SDS011;6027;48.576;9.180;2022-12-29T15:59:52;2.47;;;1.73;;
11935;SDS011;6027;48.576;9.180;2022-12-29T16:02:19;2.42;;;1.73;;
11935;SDS011;6027;48.576;9.180;2022-12-29T16:04:46;3.17;;;2.42;;
11935;SDS011;6027;48.576;9.180;2022-12-29T16:07:32;2.70;;;1.90;;
11935;SDS011;6027;48.576;9.180;2022-12-29T16:10:00;2.05;;;1.40;;
11935;SDS011;6027;48.576;9.180;2022-12-29T16:12:30;3.63;;;1.70;;
11935;SDS011;6027;48.576;9.180;2022-12-29T16:15:12;4.07;;;2.00;;
11935;SDS011;6027;48.576;9.180;2022-12-29T16:17:46;4.07;;;3.15;;
11935;SDS011;6027;48.576;9.180;2022-12-29T16:20:17;3.55;;;2.53;;
11935;SDS011;6027;48.576;9.180;2022-12-29T16:22:50;2.60;;;2.08;;
11935;SDS011;6027;48.576;9.180;2022-12-29T16:25:24;2.75;;;1.85;;
11935;SDS011;6027;48.576;9.180;2022-12-29T16:27:54;3.20;;;2.05;;
11935;SDS011;6027;48.576;9.180;2022-12-29T16:30:21;3.30;;;2.20;;
11935;SDS011;6027;48.576;9.180;2022-12-29T16:32:50;3.55;;;2.20;;
11935;SDS011;6027;48.576;9.180;2022-12-29T16:43:23;4.10;;;3.20;;
11935;SDS011;6027;48.576;9.180;2022-12-29T16:48:27;4.18;;;2.63;;
11935;SDS011;6027;48.576;9.180;2022-12-29T16:53:28;1.70;;;1.60;;
11935;SDS011;6027;48.576;9.180;2022-12-29T16:55:57;6.03;;;4.15;;
11935;SDS011;6027;48.576;9.180;2022-12-29T16:58:29;6.82;;;3.70;;
11935;SDS011;6027;48.576;9.180;2022-12-29T17:00:57;4.95;;;3.83;;
11935;SDS011;6027;48.576;9.180;2022-12-29T17:03:27;5.88;;;3.70;;
11935;SDS011;6027;48.576;9.180;2022-12-29T17:05:57;6.55;;;4.93;;
11935;SDS011;6027;48.576;9.180;2022-12-29T17:08:23;3.03;;;1.92;;
11935;SDS011;6027;48.576;9.180;2022-12-29T17:10:53;4.18;;;2.80;;
11935;SDS011;6027;48.576;9.180;2022-12-29T17:13:39;4.15;;;2.38;;
11935;SDS011;6027;48.576;9.180;2022-12-29T17:16:05;2.20;;;1.90;;
11935;SDS011;6027;48.576;9.180;2022-12-29T17:18:33;2.13;;;1.75;;
11935;SDS011;6027;48.576;9.180;2022-12-29T17:20:59;5.50;;;3.08;;
11935;SDS011;6027;48.576;9.180;2022-12-29T17:23:25;6.95;;;3.10;;
11935;SDS011;6027;48.576;9.180;2022-12-29T17:25:51;5.57;;;4.43;;
11935;SDS011;6027;48.576;9.180;2022-12-29T17:28:26;6.90;;;5.20;;
11935;SDS011;6027;48.576;9.180;2022-12-29T17:30:55;5.82;;;4.78;;
11935;SDS011;6027;48.576;9.180;2022-12-29T17:33:38;4.55;;;4.15;;
11935;SDS011;6027;48.576;9.180;2022-12-29T17:36:06;6.68;;;5.32;;
11935;SDS011;6027;48.576;9.180;2022-12-29T17:38:35;6.93;;;5.05;;
11935;SDS011;6027;48.576;9.180;2022-12-29T17:41:01;4.47;;;3.72;;
11935;SDS011;6027;48.576;9.180;2022-12-29T17:43:27;5.55;;;3.92;;
11935;SDS011;6027;48.576;9.180;2022-12-29T17:45:53;3.88;;;3.53;;
11935;SDS011;6027;48.576;9.180;2022-12-29T17:48:21;3.55;;;3.25;;
11935;SDS011;6027;48.576;9.180;2022-12-29T17:50:47;4.25;;;3.50;;
11935;SDS011;6027;48.576;9.180;2022-12-29T17:53:14;4.55;;;3.45;;
11935;SDS011;6027;48.576;9.180;2022-12-29T17:55:43;4.60;;;4.10;;
11935;SDS011;6027;48.576;9.180;2022-12-29T18:00:41;7.15;;;5.53;;
11935;SDS011;6027;48.576;9.180;2022-12-29T18:03:07;8.60;;;7.70;;